Time;durP1;ratioP1;P1;durP2;ratioP2;P2;SDS_P1;SDS_P2;PMS_P1;PMS_P2;Temp;Humidity;BMP_temperature;BMP_pressure;BME280_temperature;BME280_humidity;BME280_pressure;Samples;Min_cycle;Max_cycle;Signal;HPM_P1;HPM_P2
2023/11/11 00:00:04;;;;;;;5.33;3.73;;;;;;;9.67;75.29;92628.56;513358;28;924;-64
2023/11/11 00:00:20;;;;;;;4.38;3.50;;;;;;;9.67;75.30;92623.78;513372;28;888;-64
2023/11/11 00:00:37;;;;;;;4.03;3.60;;;;;;;9.62;75.41;92624.72;513234;28;1149;-64
2023/11/11 00:00:53;;;;;;;4.20;3.80;;;;;;;9.64;75.46;92626.91;513577;28;871;-64
2023/11/11 00:01:08;;;;;;;4.13;3.58;;;;;;;9.65;75.57;92625.63;513400;28;940;-64
2023/11/11 00:01:23;;;;;;;4.47;3.70;;;;;;;9.61;75.49;92625.31;513200;28;789;-64
2023/11/11 00:01:39;;;;;;;4.78;3.75;;;;;;;9.65;75.53;92631.16;513103;28;1686;-64
2023/11/11 00:01:55;;;;;;;4.50;3.55;;;;;;;9.65;75.24;92628.38;514321;28;860;-64
2023/11/11 00:02:10;;;;;;;5.37;4.03;;;;;;;9.64;75.36;92629.66;513619;28;1988;-64
2023/11/11 00:02:26;;;;;;;6.80;4.25;;;;;;;9.64;75.34;92624.16;513409;28;792;-64
2023/11/11 00:02:42;;;;;;;5.63;3.83;;;;;;;9.63;75.25;92622.72;513763;28;979;-64
2023/11/11 00:02:58;;;;;;;4.53;3.78;;;;;;;9.60;75.54;92621.81;513277;28;855;-64
2023/11/11 00:03:14;;;;;;;4.87;3.73;;;;;;;9.60;75.42;92623.81;513283;28;841;-64
2023/11/11 00:03:30;;;;;;;3.80;3.40;;;;;;;9.59;75.67;92620.34;513182;28;848;-64
2023/11/11 00:03:46;;;;;;;4.47;4.03;;;;;;;9.59;75.38;92616.88;513224;28;1149;-64
2023/11/11 00:04:01;;;;;;;5.72;4.63;;;;;;;9.56;75.33;92617.97;513811;28;838;-64
2023/11/11 00:04:16;;;;;;;6.60;4.80;;;;;;;9.32;75.52;92580.13;514371;28;1690;-64
2023/11/11 00:04:32;;;;;;;6.10;4.75;;;;;;;9.57;75.39;92616.69;514355;28;841;-64
2023/11/11 00:04:47;;;;;;;5.20;4.67;;;;;;;9.56;75.55;92604.94;513556;28;984;-64
2023/11/11 00:05:03;;;;;;;5.63;4.67;;;;;;;9.55;75.44;92614.47;513554;28;1048;-64
2023/11/11 00:05:19;;;;;;;6.05;4.25;;;;;;;9.56;75.69;92612.47;513204;28;864;-64
2023/11/11 00:05:34;;;;;;;6.13;3.92;;;;;;;9.54;75.56;92604.03;513354;28;754;-65
2023/11/11 00:05:49;;;;;;;5.57;3.63;;;;;;;9.29;75.57;92570.94;513673;28;821;-64
2023/11/11 00:06:05;;;;;;;4.78;3.58;;;;;;;9.30;75.37;92574.44;513073;28;1011;-64
2023/11/11 00:06:20;;;;;;;7.33;3.90;;;;;;;9.53;75.34;92602.59;513270;28;822;-64
2023/11/11 00:06:35;;;;;;;7.37;3.87;;;;;;;9.51;75.77;92605.88;513246;28;1185;-64
2023/11/11 00:06:51;;;;;;;4.60;3.42;;;;;;;9.47;75.86;92613.81;513533;28;869;-64
2023/11/11 00:07:06;;;;;;;3.47;3.10;;;;;;;9.48;75.55;92611.78;513526;28;1914;-64
2023/11/11 00:07:23;;;;;;;3.67;3.30;;;;;;;9.47;75.83;92616.56;515002;28;833;-64
2023/11/11 00:07:39;;;;;;;3.85;3.40;;;;;;;9.47;75.60;92619.31;513150;28;1040;-65
2023/11/11 00:07:55;;;;;;;3.60;3.30;;;;;;;9.46;75.76;92614.38;513379;28;1190;-64
2023/11/11 00:08:10;;;;;;;3.83;3.43;;;;;;;9.47;75.68;92619.31;513773;28;1044;-65
2023/11/11 00:08:26;;;;;;;4.10;3.70;;;;;;;9.46;75.98;92615.13;513241;28;829;-64
2023/11/11 00:08:42;;;;;;;4.57;3.83;;;;;;;9.47;75.75;92618.59;513491;28;855;-64
2023/11/11 00:08:57;;;;;;;5.22;3.70;;;;;;;9.48;76.05;92615.28;513376;28;949;-64
2023/11/11 00:09:13;;;;;;;5.63;3.73;;;;;;;9.48;75.97;92614.56;512982;28;1006;-65
2023/11/11 00:09:29;;;;;;;6.07;3.83;;;;;;;9.48;76.05;92617.31;513306;28;864;-65
2023/11/11 00:09:44;;;;;;;4.90;3.80;;;;;;;9.48;76.01;92615.28;513373;28;1158;-65
2023/11/11 00:10:00;;;;;;;4.40;3.87;;;;;;;9.49;75.94;92621.50;513780;28;828;-66
2023/11/11 00:10:15;;;;;;;4.85;4.10;;;;;;;9.48;75.81;92620.81;513366;28;758;-65
2023/11/11 00:10:31;;;;;;;6.10;3.87;;;;;;;9.48;75.77;92617.31;513399;28;928;-65
2023/11/11 00:10:46;;;;;;;6.05;3.60;;;;;;;9.48;76.16;92612.53;513429;28;1114;-64
2023/11/11 00:11:03;;;;;;;5.60;3.70;;;;;;;9.48;76.06;92615.28;513488;28;969;-64
2023/11/11 00:11:18;;;;;;;5.75;3.92;;;;;;;9.48;76.06;92612.53;513035;28;909;-64
2023/11/11 00:11:35;;;;;;;4.27;3.80;;;;;;;9.47;75.86;92613.81;512995;28;1758;-64
2023/11/11 00:11:51;;;;;;;4.03;3.63;;;;;;;9.47;76.01;92610.31;514582;28;995;-64
2023/11/11 00:12:07;;;;;;;5.70;3.83;;;;;;;9.47;76.12;92611.06;514483;28;1064;-64
2023/11/11 00:12:24;;;;;;;6.10;3.97;;;;;;;9.47;75.76;92610.31;513327;28;1246;-64
2023/11/11 00:12:39;;;;;;;5.15;4.18;;;;;;;9.48;75.68;92609.03;513189;28;1075;-65
2023/11/11 00:12:55;;;;;;;4.90;3.93;;;;;;;9.47;75.72;92613.81;513608;28;770;-64
2023/11/11 00:13:10;;;;;;;4.88;3.83;;;;;;;9.48;75.80;92609.03;513620;28;770;-65
2023/11/11 00:13:26;;;;;;;5.23;4.10;;;;;;;9.49;75.64;92610.50;512610;28;1329;-65
2023/11/11 00:13:41;;;;;;;4.70;4.10;;;;;;;9.48;75.87;92609.03;513416;28;820;-65
2023/11/11 00:13:56;;;;;;;5.13;4.13;;;;;;;9.47;75.56;92605.53;515353;28;990;-64
2023/11/11 00:14:13;;;;;;;4.87;4.00;;;;;;;9.49;75.57;92604.97;513935;28;1106;-65
2023/11/11 00:14:29;;;;;;;4.97;3.95;;;;;;;9.44;75.55;92595.63;514398;28;859;-65
2023/11/11 00:14:44;;;;;;;5.95;3.97;;;;;;;9.48;75.89;92598.75;513293;28;825;-65
2023/11/11 00:15:01;;;;;;;4.87;4.00;;;;;;;9.46;75.53;92601.34;515346;28;762;-64
2023/11/11 00:15:16;;;;;;;5.35;4.22;;;;;;;9.44;75.82;92600.44;511429;29;863;-64
2023/11/11 00:15:33;;;;;;;6.53;4.40;;;;;;;9.44;75.50;92601.16;511226;29;955;-64
2023/11/11 00:15:49;;;;;;;5.90;4.32;;;;;;;9.44;75.80;92606.66;512620;28;1652;-64
2023/11/11 00:16:05;;;;;;;5.70;4.63;;;;;;;9.43;75.98;92604.47;513563;28;976;-64
2023/11/11 00:16:20;;;;;;;7.07;5.38;;;;;;;9.44;75.92;92605.94;515457;28;841;-64
2023/11/11 00:16:36;;;;;;;8.97;5.47;;;;;;;9.43;76.03;92605.22;515650;28;769;-64
2023/11/11 00:16:51;;;;;;;10.02;5.75;;;;;;;9.41;75.91;92599.53;515416;28;817;-64
2023/11/11 00:17:07;;;;;;;8.17;5.40;;;;;;;9.40;75.84;92600.81;510923;28;2553;-64
2023/11/11 00:17:22;;;;;;;6.95;4.72;;;;;;;9.40;76.18;92600.81;511030;29;1063;-64
2023/11/11 00:17:38;;;;;;;7.23;4.80;;;;;;;9.40;76.10;92605.63;512781;28;821;-64
2023/11/11 00:17:53;;;;;;;7.00;4.75;;;;;;;9.38;76.29;92599.91;513350;28;774;-64
2023/11/11 00:18:08;;;;;;;8.63;4.87;;;;;;;9.36;76.29;92600.47;512565;28;912;-64
2023/11/11 00:18:25;;;;;;;10.50;5.90;;;;;;;9.37;76.05;92601.97;513482;28;912;-64
2023/11/11 00:18:41;;;;;;;9.85;6.68;;;;;;;9.37;76.05;92596.44;512057;28;1171;-64
2023/11/11 00:18:56;;;;;;;9.67;6.57;;;;;;;9.26;76.20;92585.13;511259;28;1068;-64
2023/11/11 00:19:13;;;;;;;10.10;6.45;;;;;;;9.15;76.47;92570.50;513128;28;920;-64
2023/11/11 00:19:29;;;;;;;9.50;6.13;;;;;;;9.38;76.37;92592.38;513472;28;904;-64
2023/11/11 00:19:44;;;;;;;8.82;5.68;;;;;;;9.38;76.05;92602.66;515110;28;921;-65
2023/11/11 00:20:00;;;;;;;9.13;5.83;;;;;;;9.36;76.06;92602.50;515337;28;825;-65
2023/11/11 00:20:16;;;;;;;8.20;5.70;;;;;;;9.34;76.22;92596.81;513271;28;1062;-64
2023/11/11 00:20:32;;;;;;;8.23;5.47;;;;;;;9.35;76.51;92588.00;513287;28;1618;-64
2023/11/11 00:20:48;;;;;;;8.93;5.55;;;;;;;9.36;76.40;92594.97;513225;28;786;-64
2023/11/11 00:21:04;;;;;;;8.43;5.65;;;;;;;9.35;76.39;92596.28;513081;28;1642;-64
2023/11/11 00:21:21;;;;;;;7.80;5.60;;;;;;;9.37;76.18;92592.94;514417;28;838;-65
2023/11/11 00:21:38;;;;;;;7.13;5.13;;;;;;;9.36;76.40;92588.72;513301;28;1632;-65
2023/11/11 00:21:54;;;;;;;6.57;4.82;;;;;;;9.35;76.51;92584.53;515348;28;820;-65
2023/11/11 00:22:10;;;;;;;7.65;4.95;;;;;;;9.36;76.53;92594.22;514024;28;1954;-65
2023/11/11 00:22:25;;;;;;;7.67;5.20;;;;;;;9.36;76.30;92597.00;515410;28;815;-64
2023/11/11 00:22:44;;;;;;;5.43;4.63;;;;;;;9.35;76.64;92593.53;515461;28;865;-65
2023/11/11 00:23:05;;;;;;;4.70;4.20;;;;;;;9.38;76.22;92597.16;514388;28;2298;-65
2023/11/11 00:23:20;;;;;;;5.60;4.00;;;;;;;9.39;76.55;92601.38;514321;28;931;-65
2023/11/11 00:23:37;;;;;;;7.22;4.45;;;;;;;9.39;76.42;92598.63;515476;28;837;-65
2023/11/11 00:23:53;;;;;;;8.13;4.70;;;;;;;9.11;76.10;92567.44;514046;28;1421;-65
2023/11/11 00:24:09;;;;;;;6.82;4.13;;;;;;;9.37;76.20;92601.97;514027;28;766;-65
2023/11/11 00:24:25;;;;;;;6.45;4.05;;;;;;;9.37;76.05;92601.22;514531;28;899;-66
2023/11/11 00:24:40;;;;;;;6.03;4.17;;;;;;;9.38;76.09;92599.91;514471;28;1098;-65
2023/11/11 00:24:56;;;;;;;4.20;3.80;;;;;;;9.37;76.04;92595.72;513232;28;1513;-65
2023/11/11 00:25:12;;;;;;;5.80;3.90;;;;;;;9.37;76.26;92596.44;513418;28;893;-65
2023/11/11 00:25:28;;;;;;;5.97;4.13;;;;;;;9.36;76.29;92594.97;513064;28;1141;-65
2023/11/11 00:25:43;;;;;;;4.67;3.80;;;;;;;9.35;76.08;92593.53;513484;28;769;-64
2023/11/11 00:25:59;;;;;;;4.55;3.42;;;;;;;9.35;76.07;92598.28;514165;28;952;-65
2023/11/11 00:26:14;;;;;;;4.43;3.53;;;;;;;9.34;76.43;92596.81;513284;28;1059;-64
2023/11/11 00:26:30;;;;;;;4.80;3.83;;;;;;;9.34;76.12;92596.81;513348;28;1083;-64
2023/11/11 00:26:48;;;;;;;4.03;3.47;;;;;;;9.22;76.19;92582.03;514276;28;1755;-64
2023/11/11 00:27:03;;;;;;;3.90;3.42;;;;;;;9.34;76.10;92599.56;513085;28;964;-64
2023/11/11 00:27:19;;;;;;;5.28;4.10;;;;;;;9.35;76.31;92603.81;513315;28;790;-64
2023/11/11 00:27:34;;;;;;;4.57;4.10;;;;;;;9.35;76.01;92599.03;513211;28;1095;-65
2023/11/11 00:27:49;;;;;;;4.23;3.83;;;;;;;9.36;76.29;92600.47;513496;28;794;-65
2023/11/11 00:28:05;;;;;;;4.50;3.88;;;;;;;9.36;76.10;92602.50;513453;28;844;-63
2023/11/11 00:28:20;;;;;;;4.50;3.93;;;;;;;9.35;76.39;92598.28;513274;28;849;-65
2023/11/11 00:28:40;;;;;;;4.20;3.80;;;;;;;9.34;76.40;92608.56;513273;28;995;-65
2023/11/11 00:28:55;;;;;;;4.32;3.67;;;;;;;9.34;76.29;92600.31;511523;29;1625;-64
2023/11/11 00:29:11;;;;;;;4.60;3.65;;;;;;;9.34;76.11;92602.31;513250;28;1043;-65
2023/11/11 00:29:26;;;;;;;4.00;3.60;;;;;;;9.33;76.31;92604.38;514237;28;1642;-66
2023/11/11 00:29:42;;;;;;;3.90;3.58;;;;;;;9.32;76.26;92602.16;513218;28;770;-66
2023/11/11 00:29:58;;;;;;;4.37;3.80;;;;;;;9.25;76.67;92602.97;515313;28;1093;-66
2023/11/11 00:30:14;;;;;;;4.65;3.90;;;;;;;9.23;76.40;92600.75;513412;28;1062;-66
2023/11/11 00:30:30;;;;;;;4.53;4.07;;;;;;;9.22;76.85;92601.31;515159;28;798;-66
2023/11/11 00:30:46;;;;;;;4.65;4.15;;;;;;;9.18;76.83;92596.91;513484;28;1079;-66
2023/11/11 00:31:01;;;;;;;4.60;4.05;;;;;;;9.18;77.09;92605.19;513892;28;828;-66
2023/11/11 00:31:16;;;;;;;4.83;4.33;;;;;;;9.16;76.82;92598.75;513149;28;850;-65
2023/11/11 00:31:33;;;;;;;4.93;4.43;;;;;;;9.15;77.25;92614.56;513322;28;948;-66
2023/11/11 00:31:49;;;;;;;4.45;4.00;;;;;;;9.15;77.29;92611.09;513264;28;993;-65
2023/11/11 00:32:06;;;;;;;3.97;3.53;;;;;;;9.13;76.94;92611.66;513263;28;1466;-66
2023/11/11 00:32:22;;;;;;;4.10;3.60;;;;;;;9.09;77.14;92610.56;512750;28;1432;-66
2023/11/11 00:32:37;;;;;;;4.27;3.80;;;;;;;9.01;77.70;92605.09;515009;28;765;-66
2023/11/11 00:32:54;;;;;;;6.10;4.28;;;;;;;9.02;77.60;92616.84;514404;28;852;-66
2023/11/11 00:33:09;;;;;;;6.38;4.38;;;;;;;9.01;78.00;92612.63;513722;28;853;-66
2023/11/11 00:33:25;;;;;;;5.93;4.40;;;;;;;8.97;77.90;92618.53;513371;28;802;-66
2023/11/11 00:33:42;;;;;;;5.23;4.23;;;;;;;8.97;77.80;92621.28;513219;28;1046;-66
2023/11/11 00:33:58;;;;;;;4.53;4.10;;;;;;;8.89;78.21;92615.09;513370;28;849;-66
2023/11/11 00:34:15;;;;;;;4.70;4.10;;;;;;;8.91;78.21;92618.00;512955;28;838;-66
2023/11/11 00:34:31;;;;;;;4.80;4.30;;;;;;;8.92;78.41;92622.22;513506;28;900;-66
2023/11/11 00:34:47;;;;;;;5.30;4.40;;;;;;;8.91;78.10;92620.75;513457;28;877;-66
2023/11/11 00:35:03;;;;;;;5.40;4.20;;;;;;;8.91;78.50;92612.50;513535;28;1065;-65
2023/11/11 00:35:19;;;;;;;4.68;4.20;;;;;;;8.91;78.52;92607.00;513032;28;1065;-65
2023/11/11 00:35:35;;;;;;;5.07;4.13;;;;;;;8.92;78.20;92616.69;513572;28;1140;-65
2023/11/11 00:35:50;;;;;;;5.17;4.10;;;;;;;8.90;78.25;92616.53;513502;28;833;-66
2023/11/11 00:36:06;;;;;;;4.83;4.27;;;;;;;8.82;78.62;92615.84;513454;28;766;-66
2023/11/11 00:36:21;;;;;;;5.18;4.50;;;;;;;8.84;78.52;92609.78;513229;28;775;-66
2023/11/11 00:36:39;;;;;;;4.90;4.40;;;;;;;8.80;78.83;92609.44;513288;28;1897;-66
2023/11/11 00:36:55;;;;;;;4.97;4.47;;;;;;;8.75;78.85;92604.88;515324;28;1078;-66
2023/11/11 00:37:10;;;;;;;5.30;4.80;;;;;;;8.69;79.10;92613.31;513720;28;861;-66
2023/11/11 00:37:26;;;;;;;6.07;5.03;;;;;;;8.66;79.63;92608.22;513240;28;1097;-67
2023/11/11 00:37:41;;;;;;;6.32;4.65;;;;;;;8.62;79.53;92616.84;514077;28;891;-66
2023/11/11 00:37:57;;;;;;;5.83;4.60;;;;;;;8.61;79.92;92612.63;515432;28;777;-66
2023/11/11 00:38:12;;;;;;;5.28;4.40;;;;;;;8.63;79.70;92618.31;513344;28;1044;-66
2023/11/11 00:38:30;;;;;;;5.10;4.20;;;;;;;8.64;79.99;92610.78;512991;28;1051;-66
2023/11/11 00:38:45;;;;;;;5.50;4.43;;;;;;;8.60;79.84;92610.44;513987;28;857;-66
2023/11/11 00:39:01;;;;;;;6.00;4.60;;;;;;;8.55;80.08;92603.13;515401;28;1073;-66
2023/11/11 00:39:16;;;;;;;5.63;4.45;;;;;;;8.56;80.19;92607.31;512896;28;1714;-66
2023/11/11 00:39:33;;;;;;;5.57;4.37;;;;;;;8.50;80.05;92601.28;513905;28;806;-66
2023/11/11 00:39:48;;;;;;;7.20;4.70;;;;;;;8.56;80.02;92610.06;514062;28;1250;-66
2023/11/11 00:40:04;;;;;;;6.37;4.43;;;;;;;8.55;80.28;92600.38;514333;28;1258;-67
2023/11/11 00:40:21;;;;;;;6.60;4.45;;;;;;;8.29;80.24;92568.56;513496;28;924;-66
2023/11/11 00:40:39;;;;;;;5.85;4.20;;;;;;;8.27;80.61;92563.59;515546;28;830;-67
2023/11/11 00:40:54;;;;;;;4.40;4.00;;;;;;;8.51;80.47;92597.28;515786;28;900;-67
2023/11/11 00:41:09;;;;;;;4.70;4.23;;;;;;;8.49;80.64;92595.06;514423;28;991;-67
2023/11/11 00:41:25;;;;;;;5.03;4.57;;;;;;;8.49;80.82;92595.06;513611;28;758;-67
2023/11/11 00:41:42;;;;;;;5.03;4.53;;;;;;;8.45;80.59;92600.22;513519;28;942;-67
2023/11/11 00:41:57;;;;;;;5.00;4.22;;;;;;;8.43;80.95;92600.03;513618;28;997;-67
2023/11/11 00:42:14;;;;;;;4.43;4.00;;;;;;;8.40;81.01;92603.91;513691;28;2012;-67
2023/11/11 00:42:29;;;;;;;5.10;4.00;;;;;;;8.40;81.31;92596.38;513713;28;975;-67
2023/11/11 00:42:44;;;;;;;4.83;3.90;;;;;;;8.44;81.20;92598.75;513548;28;1151;-67
2023/11/11 00:43:00;;;;;;;5.10;4.23;;;;;;;8.46;81.12;92598.19;513875;28;798;-67
2023/11/11 00:43:16;;;;;;;5.45;4.60;;;;;;;8.49;81.13;92594.34;513669;28;1014;-65
2023/11/11 00:43:31;;;;;;;4.80;4.40;;;;;;;8.52;81.11;92590.47;513599;28;809;-65
2023/11/11 00:43:46;;;;;;;4.88;4.38;;;;;;;8.45;80.68;92580.22;513413;28;1758;-65
2023/11/11 00:44:02;;;;;;;4.90;4.40;;;;;;;8.58;80.81;92585.47;514949;28;825;-65
2023/11/11 00:44:19;;;;;;;4.55;4.15;;;;;;;8.60;80.60;92583.66;514002;28;1279;-65
2023/11/11 00:44:36;;;;;;;4.40;4.00;;;;;;;8.60;80.31;92585.69;513597;28;1743;-65
2023/11/11 00:44:51;;;;;;;5.18;4.25;;;;;;;8.61;80.44;92587.13;513726;28;975;-65
2023/11/11 00:45:07;;;;;;;5.17;4.33;;;;;;;8.62;79.98;92585.84;513580;28;770;-65
2023/11/11 00:45:23;;;;;;;4.50;4.03;;;;;;;8.63;80.02;92584.56;515453;28;1132;-65
2023/11/11 00:45:38;;;;;;;4.43;4.03;;;;;;;8.63;80.14;92582.53;515226;28;1099;-65
2023/11/11 00:45:53;;;;;;;5.15;4.50;;;;;;;8.65;79.95;92585.47;513993;28;770;-65
2023/11/11 00:46:09;;;;;;;5.53;4.60;;;;;;;8.66;79.86;92592.44;514403;28;762;-65
2023/11/11 00:46:24;;;;;;;4.87;4.33;;;;;;;8.45;80.11;92561.69;513823;28;1096;-65
2023/11/11 00:46:40;;;;;;;5.07;4.53;;;;;;;8.68;79.70;92595.38;513730;28;791;-65
2023/11/11 00:46:55;;;;;;;6.22;4.82;;;;;;;8.65;79.74;92593.72;513204;28;1750;-65
2023/11/11 00:47:16;;;;;;;5.23;4.67;;;;;;;8.67;79.95;92593.16;513795;28;992;-65
2023/11/11 00:47:31;;;;;;;4.93;4.53;;;;;;;8.66;79.64;92599.97;514677;28;1469;-65
2023/11/11 00:47:46;;;;;;;4.83;4.40;;;;;;;8.66;79.70;92595.19;513857;28;1091;-65
2023/11/11 00:48:02;;;;;;;5.00;4.50;;;;;;;8.66;79.53;92600.69;514136;28;758;-65
2023/11/11 00:48:17;;;;;;;5.75;5.13;;;;;;;8.67;79.88;92604.16;513504;28;1264;-65
2023/11/11 00:48:33;;;;;;;7.03;5.20;;;;;;;8.67;79.83;92602.16;513660;28;778;-65
2023/11/11 00:48:48;;;;;;;7.30;4.85;;;;;;;8.69;79.51;92602.31;513639;28;1118;-65
2023/11/11 00:49:04;;;;;;;5.97;4.90;;;;;;;8.70;79.72;92600.31;513381;28;1486;-65
2023/11/11 00:49:20;;;;;;;5.32;4.90;;;;;;;8.73;79.55;92601.94;513597;28;1078;-65
2023/11/11 00:49:35;;;;;;;5.22;4.72;;;;;;;8.72;79.50;92598.47;513489;28;1718;-65
2023/11/11 00:49:51;;;;;;;5.03;4.53;;;;;;;8.74;79.52;92598.63;513863;28;765;-65
2023/11/11 00:50:09;;;;;;;5.03;4.53;;;;;;;8.76;79.71;92596.06;513512;28;1087;-65
2023/11/11 00:50:24;;;;;;;5.10;4.60;;;;;;;8.78;79.44;92598.97;513645;28;1022;-65
2023/11/11 00:50:39;;;;;;;5.30;4.80;;;;;;;8.80;79.51;92598.41;514698;28;1101;-65
2023/11/11 00:50:55;;;;;;;5.33;4.73;;;;;;;8.74;79.28;92590.38;515826;28;881;-65
2023/11/11 00:51:10;;;;;;;6.13;4.78;;;;;;;8.81;79.43;92599.88;515407;28;1587;-65
2023/11/11 00:51:26;;;;;;;5.90;5.00;;;;;;;8.80;79.32;92595.66;515640;28;1378;-67
2023/11/11 00:51:41;;;;;;;6.43;4.70;;;;;;;8.75;79.42;92593.88;515463;28;1069;-67
2023/11/11 00:51:57;;;;;;;7.50;4.82;;;;;;;8.71;79.32;92599.75;513253;28;1250;-67
2023/11/11 00:52:12;;;;;;;6.53;5.17;;;;;;;8.66;79.66;92597.94;511530;29;793;-67
2023/11/11 00:52:28;;;;;;;6.95;5.70;;;;;;;8.66;79.97;92599.97;512902;28;1221;-66
2023/11/11 00:52:43;;;;;;;6.57;5.80;;;;;;;8.63;79.80;92599.03;513481;28;1136;-66
2023/11/11 00:52:59;;;;;;;5.90;5.30;;;;;;;8.64;79.78;92597.75;513123;28;1311;-65
2023/11/11 00:53:14;;;;;;;5.65;5.15;;;;;;;8.66;79.88;92592.44;511260;28;1410;-65
2023/11/11 00:53:30;;;;;;;5.37;4.87;;;;;;;8.68;79.83;92597.38;513954;28;1177;-65
2023/11/11 00:53:45;;;;;;;5.40;4.90;;;;;;;8.67;80.05;92596.66;514137;28;1136;-66
2023/11/11 00:54:00;;;;;;;5.22;4.70;;;;;;;8.69;80.09;92593.31;513454;28;1207;-65
2023/11/11 00:54:16;;;;;;;5.07;4.53;;;;;;;8.71;79.95;92588.00;511800;28;1170;-65
2023/11/11 00:54:32;;;;;;;4.73;4.30;;;;;;;8.72;79.93;92586.72;512782;28;947;-66
2023/11/11 00:54:48;;;;;;;4.68;4.28;;;;;;;8.70;79.72;92581.03;513391;28;1105;-67
2023/11/11 00:55:04;;;;;;;5.53;4.43;;;;;;;8.69;80.01;92585.81;513202;28;1120;-67
2023/11/11 00:55:20;;;;;;;5.60;4.10;;;;;;;8.67;79.90;92582.88;513247;28;1238;-66
2023/11/11 00:55:35;;;;;;;4.53;3.93;;;;;;;8.67;80.00;92591.13;513544;28;1126;-66
2023/11/11 00:55:51;;;;;;;5.25;4.07;;;;;;;8.63;79.98;92579.78;513743;28;1105;-67
2023/11/11 00:56:06;;;;;;;5.10;4.13;;;;;;;8.65;80.17;92581.97;513362;28;1188;-67
2023/11/11 00:56:22;;;;;;;5.15;4.10;;;;;;;8.61;80.14;92585.13;513376;28;1176;-67
2023/11/11 00:56:38;;;;;;;6.37;4.37;;;;;;;8.37;80.20;92550.75;513604;28;1117;-67
2023/11/11 00:56:53;;;;;;;5.75;4.43;;;;;;;8.59;80.31;92576.69;513732;28;1141;-66
2023/11/11 00:57:08;;;;;;;5.47;4.30;;;;;;;8.56;80.34;92572.28;513165;28;1137;-67
2023/11/11 00:57:24;;;;;;;5.60;4.20;;;;;;;8.44;80.74;92568.50;513402;28;1120;-66
2023/11/11 00:57:40;;;;;;;4.67;4.07;;;;;;;8.43;80.94;92569.78;513401;28;1093;-66
2023/11/11 00:57:56;;;;;;;5.18;3.88;;;;;;;8.43;80.94;92569.78;513716;28;1110;-66
2023/11/11 00:58:11;;;;;;;5.03;3.97;;;;;;;8.39;81.01;92563.94;512343;28;1206;-66
2023/11/11 00:58:27;;;;;;;4.97;4.53;;;;;;;8.32;81.40;92570.91;512438;28;1014;-66
2023/11/11 00:58:42;;;;;;;5.90;5.30;;;;;;;8.31;81.65;92571.47;512679;28;1101;-67
2023/11/11 00:58:58;;;;;;;6.05;4.97;;;;;;;8.25;81.80;92571.66;512095;28;999;-67
2023/11/11 00:59:13;;;;;;;6.63;4.50;;;;;;;8.23;82.27;92573.47;513230;28;1141;-66
2023/11/11 00:59:28;;;;;;;6.37;4.77;;;;;;;8.24;82.41;92564.69;513341;28;1002;-66
2023/11/11 00:59:44;;;;;;;5.23;4.73;;;;;;;8.22;82.31;92572.75;513043;28;1090;-66
2023/11/11 00:59:59;;;;;;;5.43;4.30;;;;;;;8.22;82.56;92574.78;511379;29;1144;-67
2023/11/11 01:00:19;;;;;;;5.00;4.32;;;;;;;8.21;82.61;92565.78;512076;28;1089;-67
2023/11/11 01:00:35;;;;;;;4.88;4.40;;;;;;;8.24;82.81;92569.44;515710;28;923;-66
2023/11/11 01:00:50;;;;;;;5.57;5.07;;;;;;;8.26;82.95;92569.66;515704;28;1662;-66
2023/11/11 01:01:05;;;;;;;5.70;5.10;;;;;;;8.28;82.56;92570.56;515777;28;933;-66
2023/11/11 01:01:21;;;;;;;5.72;5.10;;;;;;;8.27;82.58;92557.38;515479;28;870;-66
2023/11/11 01:01:36;;;;;;;5.83;5.30;;;;;;;8.26;82.62;92567.66;515510;28;895;-66
2023/11/11 01:01:52;;;;;;;5.50;5.00;;;;;;;8.19;82.84;92562.13;515743;28;837;-66
2023/11/11 01:02:07;;;;;;;5.53;4.67;;;;;;;8.20;83.09;92572.59;515729;28;1923;-66
2023/11/11 01:02:23;;;;;;;6.50;5.03;;;;;;;8.20;82.93;92569.09;515645;28;1007;-66
2023/11/11 01:02:38;;;;;;;6.93;6.22;;;;;;;8.19;83.13;92568.38;515633;28;888;-66
2023/11/11 01:02:54;;;;;;;6.38;5.82;;;;;;;8.22;83.22;92572.03;515732;28;817;-65
2023/11/11 01:03:09;;;;;;;5.03;4.63;;;;;;;8.20;83.06;92563.59;515822;28;1123;-66
2023/11/11 01:03:25;;;;;;;4.65;4.25;;;;;;;8.21;83.15;92562.31;515562;28;797;-66
2023/11/11 01:03:40;;;;;;;5.47;4.17;;;;;;;8.22;83.01;92561.03;515571;28;818;-66
2023/11/11 01:03:55;;;;;;;5.60;4.53;;;;;;;8.21;83.36;92559.56;515934;28;1019;-66
2023/11/11 01:04:11;;;;;;;5.35;4.82;;;;;;;8.14;83.34;92555.53;514543;28;1305;-66
2023/11/11 01:04:26;;;;;;;4.87;4.37;;;;;;;8.16;83.51;92563.25;511930;28;1040;-66
2023/11/11 01:04:42;;;;;;;5.03;4.50;;;;;;;8.16;83.58;92555.75;511706;29;758;-67
2023/11/11 01:04:57;;;;;;;5.60;5.10;;;;;;;8.15;83.35;92565.25;511843;29;822;-66
2023/11/11 01:05:13;;;;;;;6.22;5.72;;;;;;;8.11;83.54;92561.41;511479;29;880;-66
2023/11/11 01:05:28;;;;;;;6.03;5.53;;;;;;;8.06;83.79;92565.84;511566;29;786;-67
2023/11/11 01:05:43;;;;;;;5.90;5.37;;;;;;;8.07;84.11;92561.81;511561;29;878;-66
2023/11/11 01:06:00;;;;;;;6.15;5.55;;;;;;;8.05;84.02;92558.88;511958;29;809;-66
2023/11/11 01:06:15;;;;;;;6.55;6.00;;;;;;;8.04;84.18;92568.41;511663;29;1067;-67
2023/11/11 01:06:31;;;;;;;5.95;5.53;;;;;;;7.97;84.25;92571.19;511687;29;774;-67
2023/11/11 01:06:46;;;;;;;5.30;4.90;;;;;;;7.98;84.58;92570.63;511686;29;1039;-66
2023/11/11 01:07:02;;;;;;;5.10;4.70;;;;;;;7.98;84.66;92570.63;511916;29;873;-66
2023/11/11 01:07:18;;;;;;;5.57;5.10;;;;;;;7.98;84.82;92578.13;511415;29;1115;-66
2023/11/11 01:07:33;;;;;;;6.53;5.47;;;;;;;7.99;84.74;92582.34;511587;29;917;-66
2023/11/11 01:07:49;;;;;;;6.83;5.70;;;;;;;8.00;84.97;92583.81;512188;28;1144;-67
2023/11/11 01:08:05;;;;;;;6.15;5.55;;;;;;;8.02;84.96;92586.72;513835;28;825;-66
2023/11/11 01:08:20;;;;;;;5.50;5.10;;;;;;;8.05;85.02;92580.13;513623;28;1161;-66
2023/11/11 01:08:35;;;;;;;5.40;4.90;;;;;;;8.02;84.70;92570.97;511907;28;1011;-66
2023/11/11 01:08:51;;;;;;;6.05;4.90;;;;;;;8.04;84.84;92576.66;511883;29;913;-66
2023/11/11 01:09:06;;;;;;;5.87;5.30;;;;;;;8.04;84.91;92581.41;511767;29;1035;-67
2023/11/11 01:09:22;;;;;;;6.30;5.80;;;;;;;8.06;84.74;92567.84;511540;29;810;-66
2023/11/11 01:09:37;;;;;;;6.47;5.88;;;;;;;8.08;84.54;92574.25;511623;29;900;-66
2023/11/11 01:09:52;;;;;;;6.27;5.73;;;;;;;8.10;84.74;92573.72;511778;29;865;-66
2023/11/11 01:10:08;;;;;;;5.72;5.22;;;;;;;8.14;84.67;92568.56;511627;29;1150;-65
2023/11/11 01:10:24;;;;;;;5.47;4.97;;;;;;;8.15;84.67;92570.03;511664;29;782;-65
2023/11/11 01:10:40;;;;;;;5.30;4.70;;;;;;;8.18;84.33;92566.91;511702;29;889;-65
2023/11/11 01:10:55;;;;;;;5.00;4.47;;;;;;;8.21;84.27;92571.28;511880;29;1086;-65
2023/11/11 01:11:11;;;;;;;5.30;4.80;;;;;;;8.23;83.91;92567.97;511635;29;802;-65
2023/11/11 01:11:26;;;;;;;5.40;4.90;;;;;;;8.22;83.94;92567.25;511636;29;846;-65
2023/11/11 01:11:44;;;;;;;5.33;4.83;;;;;;;8.24;83.78;92563.94;511621;29;788;-65
2023/11/11 01:11:59;;;;;;;5.47;4.97;;;;;;;8.28;83.82;92569.81;511768;29;1031;-65
2023/11/11 01:12:15;;;;;;;5.57;4.97;;;;;;;8.29;83.71;92569.25;511855;29;766;-65
2023/11/11 01:12:30;;;;;;;6.03;5.07;;;;;;;8.30;83.54;92567.25;511689;29;759;-65
2023/11/11 01:12:45;;;;;;;6.87;5.77;;;;;;;8.31;83.31;92569.47;511676;29;766;-66
2023/11/11 01:13:01;;;;;;;6.35;5.72;;;;;;;8.34;83.40;92567.59;511831;29;945;-65
2023/11/11 01:13:16;;;;;;;5.57;5.03;;;;;;;8.35;83.11;92566.34;511501;29;1087;-66
2023/11/11 01:13:33;;;;;;;5.17;4.67;;;;;;;8.31;83.18;92563.97;511563;29;866;-66
2023/11/11 01:13:49;;;;;;;6.00;5.40;;;;;;;8.32;83.18;92570.19;511283;29;878;-66
2023/11/11 01:14:05;;;;;;;5.75;5.13;;;;;;;8.31;83.35;92574.97;511711;29;794;-66
2023/11/11 01:14:22;;;;;;;5.20;4.70;;;;;;;8.32;83.06;92581.19;511775;29;881;-66
2023/11/11 01:14:37;;;;;;;6.38;5.50;;;;;;;8.25;83.38;92573.69;511632;29;850;-66
2023/11/11 01:14:53;;;;;;;7.33;6.13;;;;;;;8.25;83.54;92579.19;511561;29;1180;-66
2023/11/11 01:15:09;;;;;;;6.70;6.05;;;;;;;8.18;83.59;92569.66;511616;29;833;-65
2023/11/11 01:15:24;;;;;;;6.00;5.50;;;;;;;8.29;83.89;92579.56;511634;29;1212;-65
2023/11/11 01:15:40;;;;;;;5.90;5.40;;;;;;;8.31;83.62;92579.72;511588;29;849;-65
2023/11/11 01:16:00;;;;;;;6.05;5.57;;;;;;;8.28;83.66;92580.81;511585;29;860;-65
2023/11/11 01:16:15;;;;;;;5.88;5.38;;;;;;;8.30;83.26;92579.00;511626;29;1070;-65
2023/11/11 01:16:30;;;;;;;5.97;5.40;;;;;;;8.31;83.38;92568.72;511909;29;857;-65
2023/11/11 01:16:46;;;;;;;6.77;5.03;;;;;;;8.33;83.20;92564.16;511741;29;866;-65
2023/11/11 01:17:05;;;;;;;6.18;4.97;;;;;;;8.25;83.37;92563.41;511770;29;1121;-66
2023/11/11 01:17:23;;;;;;;6.97;6.38;;;;;;;8.20;83.65;92563.59;511511;29;945;-66
2023/11/11 01:17:38;;;;;;;9.05;8.40;;;;;;;8.19;83.81;92545.63;511605;29;928;-65